Time;durP1;ratioP1;P1;durP2;ratioP2;P2;SDS_P1;SDS_P2;PMS_P1;PMS_P2;Temp;Humidity;BMP_temperature;BMP_pressure;BME280_temperature;BME280_humidity;BME280_pressure;Samples;Min_cycle;Max_cycle;Signal;HPM_P1;HPM_P2
2023/09/08 00:01:53;;;;;;;1.80;0.68;;;15.40;99.90;;;;;;5120759;28;20039;-73
2023/09/08 00:04:20;;;;;;;0.73;0.43;;;15.40;99.90;;;;;;5117627;28;20093;-75
2023/09/08 00:06:46;;;;;;;0.65;0.65;;;15.30;99.90;;;;;;5125922;27;20047;-73
2023/09/08 00:09:12;;;;;;;3.72;0.98;;;15.30;99.90;;;;;;5126098;28;20042;-73
2023/09/08 00:11:37;;;;;;;1.27;1.17;;;15.30;99.90;;;;;;5123174;28;20043;-74
2023/09/08 00:14:03;;;;;;;1.77;1.17;;;15.30;99.90;;;;;;5114240;28;20454;-73
2023/09/08 00:16:30;;;;;;;1.58;1.27;;;15.20;99.90;;;;;;5123824;28;20044;-74
2023/09/08 00:18:58;;;;;;;0.57;0.47;;;15.20;1.00;;;;;;5126056;27;20047;-74
2023/09/08 00:21:24;;;;;;;0.55;0.55;;;15.10;1.00;;;;;;5126819;27;20380;-73
2023/09/08 00:23:51;;;;;;;2.05;1.30;;;15.00;27.90;;;;;;5125740;28;20058;-73
2023/09/08 00:26:16;;;;;;;0.93;0.70;;;14.90;83.60;;;;;;5120147;27;20044;-73
2023/09/08 00:28:42;;;;;;;2.67;1.27;;;14.90;99.90;;;;;;5122832;27;20126;-73
2023/09/08 00:31:08;;;;;;;0.60;0.60;;;14.90;99.90;;;;;;5126460;27;20385;-73
2023/09/08 00:33:33;;;;;;;0.60;0.60;;;14.80;99.90;;;;;;5126190;27;20047;-74
2023/09/08 00:35:59;;;;;;;4.88;0.65;;;14.80;99.90;;;;;;5126583;27;20042;-73
2023/09/08 00:38:25;;;;;;;1.23;0.82;;;14.90;99.90;;;;;;5126202;27;20038;-73
2023/09/08 00:40:50;;;;;;;0.77;0.73;;;14.90;99.90;;;;;;5126151;27;20039;-73
2023/09/08 00:43:17;;;;;;;0.88;0.68;;;14.90;99.90;;;;;;5125861;27;20044;-73
2023/09/08 00:45:43;;;;;;;1.90;1.30;;;14.80;99.90;;;;;;5126012;27;20553;-73
2023/09/08 00:48:10;;;;;;;0.50;0.50;;;14.70;99.90;;;;;;5128228;27;20164;-74
2023/09/08 00:50:36;;;;;;;1.63;1.50;;;14.60;99.90;;;;;;5132524;27;20035;-73
2023/09/08 00:53:04;;;;;;;1.60;1.00;;;14.60;99.90;;;;;;5134210;27;20048;-73
2023/09/08 00:55:30;;;;;;;1.52;1.42;;;14.50;99.90;;;;;;5126252;27;20390;-74
2023/09/08 00:57:56;;;;;;;0.77;0.65;;;14.40;99.90;;;;;;5133918;27;20047;-74
2023/09/08 01:00:22;;;;;;;1.98;1.05;;;14.40;99.90;;;;;;5126859;27;20054;-74
2023/09/08 01:02:47;;;;;;;1.02;0.95;;;15.60;99.90;;;;;;5125910;27;20035;-74
2023/09/08 01:05:14;;;;;;;1.38;1.27;;;14.30;99.90;;;;;;5126154;27;20043;-74
2023/09/08 01:07:41;;;;;;;1.05;0.90;;;14.30;99.90;;;;;;5133856;27;20114;-74
2023/09/08 01:10:07;;;;;;;1.08;1.00;;;14.30;99.90;;;;;;5125880;27;20050;-73
2023/09/08 01:12:34;;;;;;;1.33;0.65;;;14.20;99.90;;;;;;5127508;27;20056;-73
2023/09/08 01:15:04;;;;;;;0.47;0.45;;;14.10;99.90;;;;;;5129108;27;20110;-74
2023/09/08 01:17:30;;;;;;;7.65;2.10;;;14.30;99.90;;;;;;5128367;27;20070;-74
2023/09/08 01:19:58;;;;;;;0.40;0.40;;;14.10;99.90;;;;;;5121306;27;20031;-74
2023/09/08 01:22:26;;;;;;;0.28;0.28;;;14.10;99.90;;;;;;5129128;27;20104;-74
2023/09/08 01:25:16;;;;;;;1.85;1.10;;;14.10;99.90;;;;;;5128963;27;20035;-73
2023/09/08 01:27:52;;;;;;;1.92;0.93;;;14.10;99.90;;;;;;5128849;27;20054;-74
2023/09/08 01:30:19;;;;;;;3.15;2.28;;;14.10;99.90;;;;;;5129154;27;20065;-74
2023/09/08 01:32:45;;;;;;;1.65;1.55;;;14.10;99.90;;;;;;5127793;27;20054;-74
2023/09/08 01:35:11;;;;;;;1.02;0.75;;;14.10;99.90;;;;;;5120896;27;20035;-74
2023/09/08 01:37:41;;;;;;;2.25;0.93;;;14.00;99.90;;;;;;5121000;27;20042;-74
2023/09/08 01:40:07;;;;;;;0.70;0.65;;;14.00;99.90;;;;;;5127658;27;20053;-74
2023/09/08 01:42:32;;;;;;;0.65;0.65;;;13.90;99.90;;;;;;5128466;27;20077;-74
2023/09/08 01:44:58;;;;;;;1.52;1.00;;;13.90;99.90;;;;;;5119964;27;20047;-74
2023/09/08 01:47:24;;;;;;;2.50;1.48;;;14.00;99.90;;;;;;5128172;27;20081;-74
2023/09/08 01:49:49;;;;;;;1.98;1.45;;;13.90;99.90;;;;;;5127779;27;20480;-74
2023/09/08 01:52:15;;;;;;;0.95;0.85;;;14.00;99.90;;;;;;5128309;27;20059;-74
2023/09/08 01:54:40;;;;;;;1.20;1.08;;;14.00;99.90;;;;;;5128319;27;20380;-74
2023/09/08 01:57:06;;;;;;;0.88;0.60;;;14.00;99.90;;;;;;5127769;27;20043;-74
2023/09/08 01:59:32;;;;;;;1.55;0.85;;;14.00;99.90;;;;;;5128045;27;20057;-73
2023/09/08 02:01:57;;;;;;;0.50;0.50;;;14.00;99.90;;;;;;5128072;27;20035;-74
2023/09/08 02:04:23;;;;;;;2.30;0.93;;;14.00;99.90;;;;;;5127603;27;20051;-73
2023/09/08 02:06:48;;;;;;;0.75;0.68;;;14.10;99.90;;;;;;5127749;27;20050;-74
2023/09/08 02:09:14;;;;;;;1.85;1.25;;;14.10;99.90;;;;;;5127766;27;20595;-73
2023/09/08 02:11:41;;;;;;;6.57;2.35;;;14.00;99.90;;;;;;5101997;27;20046;-74
2023/09/08 02:14:07;;;;;;;3.35;1.67;;;14.00;99.90;;;;;;5127667;27;20054;-74
2023/09/08 02:16:33;;;;;;;0.52;0.52;;;14.00;99.90;;;;;;5126126;27;20035;-73
2023/09/08 02:18:58;;;;;;;2.75;1.55;;;13.90;99.90;;;;;;5124675;27;20036;-74
2023/09/08 02:21:24;;;;;;;2.65;1.48;;;13.90;99.90;;;;;;5124415;27;20074;-73
2023/09/08 02:23:50;;;;;;;2.80;1.73;;;13.90;99.90;;;;;;5126819;27;20055;-73
2023/09/08 02:26:15;;;;;;;1.20;1.10;;;13.90;99.90;;;;;;5127213;27;20043;-73
2023/09/08 02:28:41;;;;;;;1.35;1.10;;;14.00;99.90;;;;;;5127243;27;20070;-73
2023/09/08 02:31:06;;;;;;;1.13;0.85;;;13.80;99.90;;;;;;5135856;27;20500;-73
2023/09/08 02:33:32;;;;;;;0.52;0.52;;;13.90;99.90;;;;;;5119674;27;20051;-73
2023/09/08 02:36:05;;;;;;;0.93;0.65;;;13.80;99.90;;;;;;5126429;27;20035;-73
2023/09/08 02:38:34;;;;;;;0.68;0.63;;;13.80;99.90;;;;;;5127131;27;20043;-73
2023/09/08 02:40:59;;;;;;;1.58;1.45;;;13.70;99.90;;;;;;5125446;27;20528;-73
2023/09/08 02:43:25;;;;;;;1.02;0.43;;;13.70;99.90;;;;;;5123984;27;20031;-73
2023/09/08 02:45:51;;;;;;;1.52;0.32;;;13.70;99.90;;;;;;5124172;27;20054;-73
2023/09/08 02:48:16;;;;;;;1.60;1.17;;;13.70;99.90;;;;;;5127527;27;20102;-73
2023/09/08 02:50:43;;;;;;;1.65;1.38;;;13.70;99.90;;;;;;5127130;27;20046;-73
2023/09/08 02:53:09;;;;;;;0.82;0.75;;;13.70;99.90;;;;;;5117489;27;20058;-73
2023/09/08 02:55:35;;;;;;;2.17;1.00;;;13.70;99.90;;;;;;5127398;27;20031;-74
2023/09/08 02:58:00;;;;;;;0.45;0.45;;;13.60;99.90;;;;;;5126893;27;20046;-73
2023/09/08 03:00:26;;;;;;;1.85;1.45;;;13.50;99.90;;;;;;5123945;27;20634;-73
2023/09/08 03:02:51;;;;;;;0.85;0.73;;;13.50;99.90;;;;;;5121608;27;20039;-72
2023/09/08 03:05:17;;;;;;;0.57;0.57;;;13.50;99.90;;;;;;5126996;27;20126;-72
2023/09/08 03:07:43;;;;;;;1.27;0.98;;;13.50;99.90;;;;;;5126628;27;20468;-73
2023/09/08 03:10:09;;;;;;;2.70;1.70;;;13.50;99.90;;;;;;5128095;27;20035;-73
2023/09/08 03:12:34;;;;;;;3.88;2.38;;;13.50;99.90;;;;;;5121951;28;20096;-73
2023/09/08 03:15:01;;;;;;;1.52;0.95;;;13.50;99.90;;;;;;5128133;27;20047;-73
2023/09/08 03:17:27;;;;;;;3.58;1.63;;;13.50;99.90;;;;;;5126093;27;20145;-73
2023/09/08 03:19:53;;;;;;;3.70;2.20;;;13.50;99.90;;;;;;5123508;28;20133;-74
2023/09/08 03:22:18;;;;;;;1.02;0.93;;;13.50;99.90;;;;;;5123550;28;20378;-74
2023/09/08 03:24:44;;;;;;;5.25;1.50;;;13.50;99.90;;;;;;5134627;28;20126;-74
2023/09/08 03:27:10;;;;;;;0.82;0.77;;;13.50;99.90;;;;;;5129760;28;20122;-74
2023/09/08 03:29:35;;;;;;;3.88;1.52;;;13.50;99.90;;;;;;5123495;28;20047;-73
2023/09/08 03:32:01;;;;;;;2.05;1.08;;;13.50;99.90;;;;;;5131654;28;20040;-74
2023/09/08 03:34:27;;;;;;;0.80;0.80;;;13.40;99.90;;;;;;5123143;28;20046;-74
2023/09/08 03:36:53;;;;;;;2.55;1.35;;;13.70;99.90;;;;;;5131676;28;20047;-73
2023/09/08 03:39:19;;;;;;;1.67;0.57;;;13.40;99.90;;;;;;5123401;28;20454;-74
2023/09/08 03:41:45;;;;;;;0.95;0.90;;;13.30;99.90;;;;;;5123065;28;20043;-74
2023/09/08 03:44:11;;;;;;;1.00;0.70;;;13.30;99.90;;;;;;5118190;27;20068;-73
2023/09/08 03:46:37;;;;;;;2.08;1.77;;;13.30;99.90;;;;;;5126259;28;20052;-73
2023/09/08 03:49:02;;;;;;;1.25;0.75;;;13.30;99.90;;;;;;5125211;28;20032;-74
2023/09/08 03:51:28;;;;;;;3.92;1.58;;;13.20;99.90;;;;;;5122867;28;20487;-74
2023/09/08 03:53:54;;;;;;;2.05;1.00;;;13.20;99.90;;;;;;5123152;28;20048;-74
2023/09/08 03:56:20;;;;;;;1.42;1.08;;;13.10;99.90;;;;;;5131694;28;20079;-74
2023/09/08 03:58:47;;;;;;;0.50;0.45;;;13.10;99.90;;;;;;5123014;28;20050;-73
2023/09/08 04:01:12;;;;;;;1.08;0.98;;;13.10;99.90;;;;;;5124582;28;20420;-74
2023/09/08 04:03:38;;;;;;;2.08;1.58;;;13.10;99.90;;;;;;5131946;27;20040;-73
2023/09/08 04:06:04;;;;;;;2.25;1.33;;;13.10;99.90;;;;;;5126553;27;20043;-74
2023/09/08 04:08:29;;;;;;;1.33;0.90;;;13.10;99.90;;;;;;5121867;27;20036;-74
2023/09/08 04:10:55;;;;;;;1.75;0.95;;;13.00;99.90;;;;;;5132849;27;20427;-78
2023/09/08 04:13:20;;;;;;;1.10;0.88;;;13.00;99.90;;;;;;5126927;27;20047;-74
2023/09/08 04:15:46;;;;;;;2.70;0.75;;;12.90;99.90;;;;;;5134899;27;20040;-77
2023/09/08 04:18:11;;;;;;;0.57;0.32;;;12.80;99.90;;;;;;5134095;27;20392;-74
2023/09/08 04:20:37;;;;;;;0.40;0.40;;;12.70;99.90;;;;;;5127785;27;20152;-74
2023/09/08 04:23:03;;;;;;;1.38;1.08;;;12.70;99.90;;;;;;5132052;27;20080;-74
2023/09/08 04:25:28;;;;;;;2.05;1.23;;;12.80;99.90;;;;;;5121434;27;20048;-74
2023/09/08 04:27:54;;;;;;;1.85;1.30;;;12.80;99.90;;;;;;5130067;27;20053;-73
2023/09/08 04:30:21;;;;;;;3.28;1.38;;;12.90;99.90;;;;;;5129564;27;20050;-73
2023/09/08 04:32:46;;;;;;;0.28;0.28;;;12.80;99.90;;;;;;5129845;27;20047;-74
2023/09/08 04:35:12;;;;;;;2.55;1.50;;;12.70;99.90;;;;;;5129570;27;20087;-73
2023/09/08 04:37:39;;;;;;;0.47;0.47;;;12.60;99.90;;;;;;5121391;27;20144;-73
2023/09/08 04:40:05;;;;;;;0.52;0.52;;;13.30;99.90;;;;;;5129263;27;20074;-73
2023/09/08 04:42:31;;;;;;;0.32;0.32;;;12.60;99.90;;;;;;5129365;27;20035;-73
2023/09/08 04:44:56;;;;;;;0.17;0.15;;;12.60;99.90;;;;;;5128074;27;20042;-73
2023/09/08 04:47:22;;;;;;;2.20;1.13;;;12.60;99.90;;;;;;5126203;27;20051;-74
2023/09/08 04:49:48;;;;;;;0.55;0.55;;;12.60;99.90;;;;;;5125149;27;20043;-74
2023/09/08 04:52:14;;;;;;;5.15;1.40;;;12.50;99.90;;;;;;5129204;27;20044;-74
2023/09/08 04:54:40;;;;;;;0.40;0.40;;;12.50;99.90;;;;;;5129051;27;20103;-72
2023/09/08 04:57:05;;;;;;;0.52;0.47;;;12.60;99.90;;;;;;5129094;27;20516;-72
2023/09/08 04:59:32;;;;;;;3.35;1.83;;;12.60;99.90;;;;;;5128518;27;20027;-72
2023/09/08 05:01:58;;;;;;;2.95;1.77;;;12.60;99.90;;;;;;5128052;27;20061;-72
2023/09/08 05:04:23;;;;;;;5.13;1.77;;;12.60;99.90;;;;;;5128177;27;20520;-72
2023/09/08 05:06:49;;;;;;;5.63;2.13;;;12.60;99.90;;;;;;5122811;27;20123;-72
2023/09/08 05:09:15;;;;;;;0.77;0.77;;;12.60;99.90;;;;;;5125651;27;20046;-73
2023/09/08 05:11:41;;;;;;;1.55;1.00;;;12.60;99.90;;;;;;5124134;27;20043;-73
2023/09/08 05:14:06;;;;;;;0.20;0.20;;;12.60;99.90;;;;;;5123323;27;20119;-73
2023/09/08 05:16:45;;;;;;;3.40;1.58;;;12.60;99.90;;;;;;5125453;27;20122;-73
2023/09/08 05:19:11;;;;;;;2.05;0.90;;;12.70;99.90;;;;;;5128067;27;20365;-73
2023/09/08 05:21:37;;;;;;;2.20;1.25;;;12.70;99.90;;;;;;5125771;27;20119;-73
2023/09/08 05:24:03;;;;;;;1.73;0.95;;;12.70;99.90;;;;;;5121289;27;20035;-73
2023/09/08 05:26:29;;;;;;;2.25;1.45;;;12.90;99.90;;;;;;5127631;27;20078;-73
2023/09/08 05:28:55;;;;;;;1.30;1.13;;;13.00;99.90;;;;;;5127532;27;20067;-73
2023/09/08 05:31:20;;;;;;;0.45;0.40;;;13.00;99.90;;;;;;5127586;27;20074;-73
2023/09/08 05:33:46;;;;;;;0.95;0.90;;;13.00;99.90;;;;;;5125638;27;20047;-73
2023/09/08 05:36:12;;;;;;;2.30;1.10;;;13.00;99.90;;;;;;5124397;27;20035;-73
2023/09/08 05:38:37;;;;;;;2.05;1.45;;;13.10;99.90;;;;;;5124118;27;20488;-73
2023/09/08 05:41:03;;;;;;;0.82;0.75;;;13.20;99.90;;;;;;5126901;27;20040;-73
2023/09/08 05:43:28;;;;;;;0.82;0.45;;;13.20;99.90;;;;;;5127294;27;20071;-73
2023/09/08 05:45:54;;;;;;;1.85;1.35;;;13.20;99.90;;;;;;5127197;27;20393;-73
2023/09/08 05:48:20;;;;;;;1.05;0.98;;;13.30;99.90;;;;;;5127141;27;20031;-73
2023/09/08 05:50:45;;;;;;;2.47;0.90;;;13.30;99.90;;;;;;5127163;27;20027;-73
2023/09/08 05:53:11;;;;;;;1.45;1.17;;;13.40;99.90;;;;;;5125001;27;20047;-73
2023/09/08 05:55:36;;;;;;;0.73;0.63;;;13.50;99.90;;;;;;5123626;27;20051;-73
2023/09/08 05:58:02;;;;;;;3.30;2.95;;;13.60;99.90;;;;;;5132355;27;20114;-73
2023/09/08 06:00:28;;;;;;;2.30;0.85;;;13.70;99.90;;;;;;5123337;27;20043;-73
2023/09/08 06:02:53;;;;;;;5.57;2.50;;;13.80;99.90;;;;;;5123725;27;20044;-73
2023/09/08 06:05:19;;;;;;;1.45;1.35;;;13.90;99.90;;;;;;5125270;27;20051;-73
2023/09/08 06:07:44;;;;;;;2.83;1.20;;;13.90;99.90;;;;;;5126709;27;20575;-73
2023/09/08 06:10:10;;;;;;;5.82;1.58;;;14.20;99.90;;;;;;5126815;27;20034;-73
2023/09/08 06:12:36;;;;;;;1.75;1.27;;;14.30;99.90;;;;;;5123189;27;20059;-73
2023/09/08 06:15:03;;;;;;;1.02;0.98;;;14.80;99.90;;;;;;5123351;27;20032;-73
2023/09/08 06:17:28;;;;;;;2.92;1.67;;;15.60;99.90;;;;;;5124627;27;20070;-73
2023/09/08 06:19:54;;;;;;;2.42;1.33;;;16.40;99.90;;;;;;5126500;27;20043;-73
2023/09/08 06:22:20;;;;;;;1.13;0.95;;;17.20;99.90;;;;;;5126217;27;20544;-73
2023/09/08 06:24:45;;;;;;;0.90;0.80;;;17.80;99.90;;;;;;5123594;27;20055;-73
2023/09/08 06:27:12;;;;;;;0.82;0.63;;;18.40;99.90;;;;;;5123056;27;20507;-73
2023/09/08 06:29:39;;;;;;;0.65;0.65;;;19.10;99.90;;;;;;5124039;27;20052;-73
2023/09/08 06:32:06;;;;;;;1.08;0.98;;;19.60;1.00;;;;;;5126343;27;20065;-73
2023/09/08 06:34:31;;;;;;;1.98;1.58;;;20.20;99.90;;;;;;5126390;27;20047;-73
2023/09/08 06:36:57;;;;;;;4.15;1.85;;;20.70;99.90;;;;;;5123432;27;20043;-73
2023/09/08 06:39:25;;;;;;;1.48;0.77;;;20.90;99.90;;;;;;5122869;27;20036;-74
2023/09/08 06:41:51;;;;;;;2.20;1.20;;;20.90;99.90;;;;;;5123830;27;20050;-74
2023/09/08 06:44:16;;;;;;;1.58;0.88;;;20.90;99.90;;;;;;5125812;27;20043;-73
2023/09/08 06:46:42;;;;;;;0.55;0.55;;;21.20;99.90;;;;;;5116896;27;20044;-73
2023/09/08 06:49:07;;;;;;;0.98;0.88;;;21.70;99.90;;;;;;5107053;27;20036;-73
2023/09/08 06:51:33;;;;;;;0.38;0.38;;;22.50;99.90;;;;;;5125427;27;20439;-73
2023/09/08 06:54:00;;;;;;;0.68;0.63;;;22.90;99.90;;;;;;5124807;27;20076;-73
2023/09/08 06:56:26;;;;;;;0.73;0.60;;;23.20;1.00;;;;;;5117493;27;20047;-73
2023/09/08 06:58:51;;;;;;;7.82;1.50;;;23.70;99.90;;;;;;5122135;27;20036;-73
2023/09/08 07:01:17;;;;;;;4.13;1.17;;;24.00;1.00;;;;;;5118448;27;20350;-73
2023/09/08 07:03:43;;;;;;;0.40;0.40;;;24.00;99.90;;;;;;5105603;27;20039;-73
2023/09/08 07:06:08;;;;;;;0.52;0.52;;;23.70;99.90;;;;;;5116702;27;20047;-73
2023/09/08 07:08:34;;;;;;;0.30;0.30;;;23.20;99.90;;;;;;5114902;27;20043;-73
2023/09/08 07:10:59;;;;;;;1.27;0.88;;;22.70;1.00;;;;;;5093189;28;20040;-73
2023/09/08 07:13:25;;;;;;;0.70;0.60;;;22.10;1.00;;;;;;5128889;27;20067;-73
2023/09/08 07:15:51;;;;;;;0.40;0.32;;;21.50;99.90;;;;;;5121695;27;20084;-73
2023/09/08 07:18:16;;;;;;;0.43;0.38;;;21.00;37.00;;;;;;5114643;28;20481;-73
2023/09/08 07:20:47;;;;;;;0.75;0.75;;;20.60;1.00;;;;;;5122704;28;20051;-73
2023/09/08 07:23:12;;;;;;;1.50;0.95;;;20.40;99.90;;;;;;5119434;27;20035;-73
2023/09/08 07:25:38;;;;;;;0.30;0.30;;;20.30;1.00;;;;;;5117570;28;20503;-73
2023/09/08 07:28:04;;;;;;;0.63;0.55;;;20.20;74.90;;;;;;5125279;27;20430;-73
2023/09/08 07:30:32;;;;;;;1.08;0.98;;;20.10;1.00;;;;;;5124769;27;20495;-73
2023/09/08 07:32:58;;;;;;;0.73;0.68;;;20.10;99.90;;;;;;5113097;28;20058;-73
2023/09/08 07:35:24;;;;;;;0.52;0.52;;;20.20;99.90;;;;;;5121408;27;20465;-73
2023/09/08 07:37:50;;;;;;;0.93;0.47;;;20.20;99.90;;;;;;5120284;27;20047;-73
2023/09/08 07:40:15;;;;;;;0.98;0.60;;;20.20;99.90;;;;;;5128232;27;20043;-73
2023/09/08 07:42:41;;;;;;;0.95;0.85;;;20.20;99.90;;;;;;5128597;27;20427;-74
2023/09/08 07:45:09;;;;;;;1.85;1.23;;;20.40;91.10;;;;;;5125202;27;20039;-74
2023/09/08 07:47:35;;;;;;;0.15;0.13;;;20.50;94.60;;;;;;5125441;27;20435;-74
2023/09/08 07:50:24;;;;;;;0.50;0.50;;;20.50;99.90;;;;;;5125192;27;20053;-74
2023/09/08 07:52:51;;;;;;;0.40;0.40;;;20.60;99.90;;;;;;5125772;27;20081;-74
2023/09/08 07:55:17;;;;;;;0.08;0.08;;;20.60;59.40;;;;;;5128814;27;20055;-74
2023/09/08 07:57:45;;;;;;;1.52;1.05;;;20.70;99.90;;;;;;5129559;27;20050;-74
2023/09/08 08:00:12;;;;;;;1.10;0.55;;;20.90;99.90;;;;;;5128185;27;20047;-74
2023/09/08 08:02:42;;;;;;;0.50;0.43;;;21.10;2.90;;;;;;5125826;27;20074;-74
2023/09/08 08:05:07;;;;;;;0.50;0.50;;;21.50;99.90;;;;;;5125827;27;20048;-74
2023/09/08 08:07:33;;;;;;;4.32;1.10;;;22.70;42.40;;;;;;5128865;27;20092;-74
2023/09/08 08:09:59;;;;;;;0.70;0.55;;;24.20;99.90;;;;;;5129001;27;20031;-74
2023/09/08 08:12:24;;;;;;;4.45;1.15;;;25.30;99.90;;;;;;5127450;27;20038;-74
2023/09/08 08:14:50;;;;;;;1.45;1.15;;;26.40;99.90;;;;;;5125795;27;20036;-74
2023/09/08 08:17:17;;;;;;;1.23;0.57;;;27.50;99.90;;;;;;5126000;27;20048;-74
2023/09/08 08:19:43;;;;;;;1.23;0.90;;;28.50;99.90;;;;;;5128995;27;20404;-74
2023/09/08 08:22:09;;;;;;;0.45;0.30;;;29.00;99.90;;;;;;5128961;27;20046;-74
2023/09/08 08:24:34;;;;;;;0.63;0.47;;;29.50;99.90;;;;;;5128052;27;20058;-74
2023/09/08 08:27:01;;;;;;;0.25;0.25;;;30.00;99.90;;;;;;5125546;27;20042;-74
2023/09/08 08:29:27;;;;;;;0.20;0.20;;;30.60;99.90;;;;;;5125473;27;20392;-74
2023/09/08 08:31:52;;;;;;;4.90;1.13;;;31.10;94.90;;;;;;5126979;27;20048;-73
2023/09/08 08:34:18;;;;;;;2.10;1.00;;;31.50;95.10;;;;;;5128476;27;20031;-73
2023/09/08 08:36:44;;;;;;;0.10;0.10;;;31.60;30.70;;;;;;5127719;27;20047;-73
2023/09/08 08:39:09;;;;;;;13.05;0.60;;;31.60;1.00;;;;;;5125101;27;20062;-73
2023/09/08 08:41:39;;;;;;;0.52;0.25;;;31.60;1.00;;;;;;5125059;27;20055;-73
2023/09/08 08:44:06;;;;;;;0.88;0.60;;;31.50;1.00;;;;;;5128166;27;21454;-72
2023/09/08 08:46:35;;;;;;;0.40;0.40;;;31.70;1.00;;;;;;5128406;27;20067;-73
2023/09/08 08:49:03;;;;;;;1.10;0.80;;;31.70;1.00;;;;;;5126189;27;20046;-73
2023/09/08 08:51:30;;;;;;;0.70;0.45;;;31.70;1.00;;;;;;5123673;27;20043;-73
2023/09/08 08:53:57;;;;;;;0.35;0.35;;;31.70;99.90;;;;;;5125203;27;20487;-73
2023/09/08 08:56:23;;;;;;;0.55;0.38;;;31.20;99.90;;;;;;5128075;27;20035;-73
2023/09/08 08:58:50;;;;;;;19.77;1.00;;;31.20;99.90;;;;;;5128296;27;20031;-73
2023/09/08 09:01:21;;;;;;;0.63;0.45;;;31.20;99.90;;;;;;5126640;27;20039;-73
2023/09/08 09:03:49;;;;;;;0.10;0.10;;;31.30;99.90;;;;;;5130727;27;20461;-73
2023/09/08 09:06:15;;;;;;;0.22;0.22;;;31.30;99.90;;;;;;5124840;27;20055;-73
2023/09/08 09:08:43;;;;;;;0.20;0.20;;;31.70;99.90;;;;;;5129074;27;20473;-73
2023/09/08 09:11:10;;;;;;;0.32;0.25;;;31.90;99.90;;;;;;5127718;27;20058;-72
2023/09/08 09:13:35;;;;;;;0.13;0.13;;;32.00;99.90;;;;;;5124669;27;20043;-73
2023/09/08 09:16:03;;;;;;;0.65;0.65;;;32.00;99.90;;;;;;5124638;27;20028;-73
2023/09/08 09:18:30;;;;;;;1.50;0.68;;;31.80;99.90;;;;;;5125796;27;20052;-73
2023/09/08 09:20:58;;;;;;;5.22;0.80;;;31.90;99.90;;;;;;5127719;27;20408;-73
2023/09/08 09:23:27;;;;;;;0.35;0.35;;;32.10;99.90;;;;;;5127603;27;20165;-73
2023/09/08 09:25:53;;;;;;;1.20;0.55;;;32.10;99.90;;;;;;5119967;27;20434;-74
2023/09/08 09:28:19;;;;;;;0.32;0.30;;;32.40;99.90;;;;;;5120525;27;20046;-74
2023/09/08 09:30:49;;;;;;;2.92;1.08;;;32.20;99.90;;;;;;5125823;27;20040;-73
2023/09/08 09:33:15;;;;;;;0.30;0.30;;;33.00;99.90;;;;;;5127484;27;20042;-74
2023/09/08 09:35:52;;;;;;;0.25;0.25;;;32.70;99.90;;;;;;5126915;27;20035;-74
2023/09/08 09:38:20;;;;;;;0.75;0.65;;;32.90;99.90;;;;;;5124123;27;20504;-74
2023/09/08 09:40:47;;;;;;;0.38;0.30;;;32.80;99.90;;;;;;5124590;27;20043;-74
2023/09/08 09:43:14;;;;;;;1.23;0.57;;;32.60;99.90;;;;;;5127150;27;20065;-73
2023/09/08 09:45:41;;;;;;;1.30;1.02;;;32.40;99.90;;;;;;5127230;27;20556;-73
2023/09/08 09:48:08;;;;;;;0.17;0.17;;;32.30;99.90;;;;;;5124648;27;20123;-74
2023/09/08 09:50:35;;;;;;;0.85;0.32;;;31.80;99.90;;;;;;5123908;27;20420;-74
2023/09/08 09:53:07;;;;;;;0.32;0.32;;;31.60;99.90;;;;;;5123993;27;20051;-74
2023/09/08 09:55:35;;;;;;;0.25;0.25;;;31.60;99.90;;;;;;5127077;27;20096;-74
2023/09/08 09:58:04;;;;;;;0.40;0.30;;;31.40;99.90;;;;;;5127038;27;20532;-73
2023/09/08 10:00:33;;;;;;;0.40;0.35;;;31.30;99.90;;;;;;5127099;27;20047;-73
2023/09/08 10:02:58;;;;;;;0.63;0.45;;;30.70;99.90;;;;;;5125372;27;20126;-73
2023/09/08 10:05:24;;;;;;;0.00;0.00;;;30.70;99.90;;;;;;5123954;27;20532;-73
2023/09/08 10:07:51;;;;;;;0.98;0.50;;;30.80;99.90;;;;;;5123537;27;20071;-73
2023/09/08 10:10:18;;;;;;;0.10;0.10;;;30.50;99.90;;;;;;5124453;27;20061;-73
2023/09/08 10:12:45;;;;;;;0.75;0.30;;;30.20;99.90;;;;;;5126508;27;20031;-73
2023/09/08 10:15:11;;;;;;;1.35;0.43;;;30.20;99.90;;;;;;5126828;27;20126;-73
2023/09/08 10:17:38;;;;;;;0.17;0.10;;;30.30;99.90;;;;;;5124211;27;20416;-74
2023/09/08 10:20:11;;;;;;;0.25;0.25;;;30.60;99.90;;;;;;5123574;27;20084;-73
2023/09/08 10:22:42;;;;;;;0.22;0.20;;;30.90;99.90;;;;;;5125133;27;20122;-73
2023/09/08 10:25:09;;;;;;;5.72;1.05;;;30.80;99.90;;;;;;5126439;27;20118;-74
2023/09/08 10:27:36;;;;;;;1.08;0.80;;;30.70;99.90;;;;;;5126376;27;20043;-73
2023/09/08 10:30:06;;;;;;;0.47;0.40;;;30.30;99.90;;;;;;5126718;27;20475;-73
2023/09/08 10:32:35;;;;;;;0.20;0.15;;;30.90;99.90;;;;;;5126600;27;20130;-74
2023/09/08 10:35:02;;;;;;;0.80;0.47;;;30.60;99.90;;;;;;5114681;27;20369;-73
2023/09/08 10:37:32;;;;;;;0.65;0.45;;;30.10;99.90;;;;;;5121641;27;20066;-73
2023/09/08 10:40:26;;;;;;;0.43;0.35;;;29.90;99.90;;;;;;5123560;27;20062;-73
2023/09/08 10:43:08;;;;;;;0.93;0.50;;;29.90;99.90;;;;;;5124180;27;20051;-73
2023/09/08 10:45:34;;;;;;;0.88;0.77;;;30.00;99.90;;;;;;5126061;27;20054;-73
2023/09/08 10:48:00;;;;;;;0.22;0.20;;;30.00;99.90;;;;;;5124240;27;20027;-73
2023/09/08 10:50:30;;;;;;;0.60;0.43;;;30.40;99.90;;;;;;5122705;27;20054;-73
2023/09/08 10:53:06;;;;;;;0.35;0.32;;;30.80;99.90;;;;;;5122607;27;20404;-73
2023/09/08 10:55:51;;;;;;;0.68;0.40;;;31.20;99.90;;;;;;5125948;27;20031;-74
2023/09/08 10:58:20;;;;;;;0.47;0.43;;;31.10;99.90;;;;;;5123309;27;20046;-74
2023/09/08 11:00:50;;;;;;;1.05;0.63;;;31.40;99.90;;;;;;5122854;27;20039;-73
2023/09/08 11:03:27;;;;;;;0.17;0.17;;;31.10;99.90;;;;;;5131417;27;20047;-73
2023/09/08 11:05:53;;;;;;;2.35;0.82;;;31.20;99.90;;;;;;5123291;27;20032;-73
2023/09/08 11:08:19;;;;;;;0.50;0.35;;;31.80;99.90;;;;;;5124279;27;20107;-73
2023/09/08 11:10:45;;;;;;;1.35;0.63;;;31.20;99.90;;;;;;5125905;27;20061;-73
2023/09/08 11:13:10;;;;;;;0.20;0.20;;;31.70;99.90;;;;;;5124735;27;20047;-73
2023/09/08 11:15:37;;;;;;;0.50;0.50;;;31.20;99.90;;;;;;5122467;27;20047;-73
2023/09/08 11:18:07;;;;;;;0.50;0.35;;;31.00;99.90;;;;;;5122582;28;20036;-73
2023/09/08 11:20:34;;;;;;;0.50;0.50;;;31.40;99.90;;;;;;5124011;28;20116;-73
2023/09/08 11:23:00;;;;;;;1.70;0.77;;;32.00;99.90;;;;;;5128921;27;20432;-73
2023/09/08 11:25:26;;;;;;;0.52;0.45;;;31.50;99.90;;;;;;5122416;28;20450;-74
2023/09/08 11:27:51;;;;;;;4.75;0.90;;;32.00;99.90;;;;;;5125325;27;20043;-74
2023/09/08 11:30:18;;;;;;;0.95;0.43;;;32.20;99.90;;;;;;5125643;28;20127;-74
2023/09/08 11:32:43;;;;;;;2.85;0.73;;;32.50;99.90;;;;;;5123861;27;20043;-73
2023/09/08 11:35:10;;;;;;;0.38;0.32;;;32.70;99.90;;;;;;5127179;28;20038;-73
2023/09/08 11:37:41;;;;;;;0.98;0.38;;;33.00;99.90;;;;;;5125506;27;20431;-73
2023/09/08 11:40:12;;;;;;;0.65;0.57;;;32.90;99.90;;;;;;5114114;28;20052;-73
2023/09/08 11:42:45;;;;;;;0.73;0.50;;;32.00;99.90;;;;;;5122052;28;20084;-73
2023/09/08 11:45:17;;;;;;;0.30;0.30;;;32.70;99.90;;;;;;5114275;28;20108;-74
2023/09/08 11:47:43;;;;;;;0.15;0.13;;;33.30;99.90;;;;;;5122099;28;20043;-74
2023/09/08 11:50:15;;;;;;;1.00;0.68;;;33.80;99.90;;;;;;5122252;27;20115;-74
2023/09/08 11:52:49;;;;;;;0.32;0.28;;;34.20;99.90;;;;;;5121850;28;20497;-73
2023/09/08 11:55:15;;;;;;;5.93;1.15;;;34.50;99.90;;;;;;5124988;28;20095;-73
2023/09/08 11:57:42;;;;;;;0.22;0.15;;;34.60;99.90;;;;;;5125523;27;20040;-73
2023/09/08 12:00:10;;;;;;;0.95;0.65;;;34.50;99.90;;;;;;5124085;27;20044;-74
2023/09/08 12:02:37;;;;;;;0.70;0.55;;;34.60;99.90;;;;;;5121879;28;20085;-73
2023/09/08 12:05:03;;;;;;;4.68;1.30;;;34.80;99.90;;;;;;5121695;28;20048;-74
2023/09/08 12:07:29;;;;;;;0.40;0.40;;;35.10;99.90;;;;;;5113599;28;20791;-73
2023/09/08 12:09:55;;;;;;;0.20;0.20;;;35.30;99.90;;;;;;5122125;28;20044;-74
2023/09/08 12:12:21;;;;;;;0.77;0.63;;;35.40;99.90;;;;;;5122751;28;20444;-74
2023/09/08 12:14:46;;;;;;;0.32;0.32;;;35.10;99.90;;;;;;5124864;27;20159;-73
2023/09/08 12:17:16;;;;;;;0.45;0.38;;;35.10;99.90;;;;;;5125050;28;20047;-73
2023/09/08 12:19:42;;;;;;;1.30;0.45;;;34.70;97.70;;;;;;5113562;28;20040;-73
2023/09/08 12:22:10;;;;;;;0.75;0.57;;;34.90;99.90;;;;;;5121305;28;20040;-73
2023/09/08 12:24:49;;;;;;;0.38;0.38;;;35.00;99.90;;;;;;5131800;27;20047;-73
2023/09/08 12:27:16;;;;;;;3.38;0.45;;;35.20;99.90;;;;;;5125460;27;20093;-74
2023/09/08 12:29:58;;;;;;;0.63;0.40;;;35.30;99.90;;;;;;5127069;27;20577;-74
2023/09/08 12:32:25;;;;;;;0.10;0.10;;;35.50;99.90;;;;;;5129232;27;20059;-73
2023/09/08 12:34:52;;;;;;;4.28;0.43;;;35.80;99.90;;;;;;5126434;27;20042;-74
2023/09/08 12:37:27;;;;;;;1.02;0.63;;;35.90;99.90;;;;;;5125399;27;20055;-73
2023/09/08 12:39:53;;;;;;;0.00;0.00;;;35.70;96.80;;;;;;5127568;27;20043;-73
2023/09/08 12:42:19;;;;;;;2.38;0.75;;;35.60;93.10;;;;;;5128479;27;20118;-73
2023/09/08 12:44:45;;;;;;;3.00;0.60;;;34.50;46.20;;;;;;5128173;27;20070;-73
2023/09/08 12:47:14;;;;;;;0.50;0.30;;;35.30;85.50;;;;;;5125104;27;20524;-74